Time;durP1;ratioP1;P1;durP2;ratioP2;P2;SDS_P1;SDS_P2;PMS_P1;PMS_P2;Temp;Humidity;BMP_temperature;BMP_pressure;BME280_temperature;BME280_humidity;BME280_pressure;Samples;Min_cycle;Max_cycle;Signal;HPM_P1;HPM_P2
2022/04/17 00:02:13;;;;;;;0.35;0.20;;;;;;;;;;5039036;28;20069;-93
2022/04/17 00:04:40;;;;;;;0.10;0.10;;;;;;;;;;5039193;28;20516;-93
2022/04/17 00:07:06;;;;;;;0.65;0.65;;;;;;;;;;5039010;28;20036;-94
2022/04/17 00:09:33;;;;;;;0.10;0.10;;;;;;;;;;5038708;28;20506;-94
2022/04/17 00:12:01;;;;;;;0.20;0.20;;;;;;;;;;5038810;28;20049;-94
2022/04/17 00:14:27;;;;;;;0.10;0.10;;;;;;;;;;5038860;28;20067;-93
2022/04/17 00:16:55;;;;;;;0.20;0.20;;;;;;;;;;5038764;28;20094;-94
2022/04/17 00:19:21;;;;;;;0.10;0.10;;;;;;;;;;5038660;28;20049;-93
2022/04/17 00:21:49;;;;;;;0.10;0.10;;;;;;;;;;5038829;28;20080;-93
2022/04/17 00:24:16;;;;;;;0.20;0.20;;;;;;;;;;5038479;28;20041;-94
2022/04/17 00:26:42;;;;;;;0.10;0.10;;;;;;;;;;5038488;28;20041;-94
2022/04/17 00:29:08;;;;;;;0.10;0.10;;;;;;;;;;5038613;28;20080;-94
2022/04/17 00:31:34;;;;;;;0.20;0.20;;;;;;;;;;5038333;28;20087;-93
2022/04/17 00:34:00;;;;;;;0.10;0.10;;;;;;;;;;5038188;28;20033;-92
2022/04/17 00:36:26;;;;;;;0.10;0.10;;;;;;;;;;5038075;28;20040;-92
2022/04/17 00:38:52;;;;;;;0.10;0.10;;;;;;;;;;5038206;28;20045;-92
2022/04/17 00:41:18;;;;;;;0.10;0.10;;;;;;;;;;5038121;28;20033;-91
2022/04/17 00:43:45;;;;;;;0.10;0.10;;;;;;;;;;5054196;28;20045;-93
2022/04/17 00:46:11;;;;;;;0.10;0.10;;;;;;;;;;5038267;28;20338;-92
2022/04/17 00:48:37;;;;;;;0.20;0.20;;;;;;;;;;5038409;28;20220;-93
2022/04/17 00:51:03;;;;;;;0.10;0.10;;;;;;;;;;5037985;28;20539;-92
2022/04/17 00:53:29;;;;;;;0.10;0.10;;;;;;;;;;5037869;28;20036;-93
2022/04/17 00:55:55;;;;;;;0.10;0.10;;;;;;;;;;5037719;28;20072;-92
2022/04/17 00:58:21;;;;;;;0.10;0.10;;;;;;;;;;5037652;28;20045;-92
2022/04/17 01:00:47;;;;;;;0.10;0.10;;;;;;;;;;5037927;28;20025;-93
2022/04/17 01:03:14;;;;;;;0.10;0.10;;;;;;;;;;5037810;28;20450;-93
2022/04/17 01:05:42;;;;;;;0.10;0.10;;;;;;;;;;5037913;28;20041;-92
2022/04/17 01:08:11;;;;;;;0.10;0.10;;;;;;;;;;5038097;28;20124;-93
2022/04/17 01:10:37;;;;;;;0.10;0.10;;;;;;;;;;5037189;28;20056;-92
2022/04/17 01:13:04;;;;;;;0.10;0.10;;;;;;;;;;5037540;28;20083;-92
2022/04/17 01:15:30;;;;;;;0.10;0.10;;;;;;;;;;5037574;28;20119;-93
2022/04/17 01:17:56;;;;;;;0.10;0.10;;;;;;;;;;5037137;28;20040;-94
2022/04/17 01:20:22;;;;;;;0.10;0.10;;;;;;;;;;5054170;28;20048;-93
2022/04/17 01:22:48;;;;;;;0.10;0.10;;;;;;;;;;5037367;28;20037;-94
2022/04/17 01:27:59;;;;;;;0.10;0.10;;;;;;;;;;5039423;28;20120;-92
2022/04/17 01:30:26;;;;;;;0.10;0.10;;;;;;;;;;5036983;28;20060;-94
2022/04/17 01:32:52;;;;;;;0.10;0.10;;;;;;;;;;5037040;28;20041;-93
2022/04/17 01:35:18;;;;;;;0.10;0.10;;;;;;;;;;5037163;28;20045;-93
2022/04/17 01:37:47;;;;;;;0.10;0.10;;;;;;;;;;5037628;28;20037;-94
2022/04/17 01:40:13;;;;;;;0.10;0.10;;;;;;;;;;5037300;28;20037;-94
2022/04/17 01:42:39;;;;;;;0.10;0.10;;;;;;;;;;5036962;28;20044;-92
2022/04/17 01:45:06;;;;;;;0.10;0.10;;;;;;;;;;5036907;28;20110;-92
2022/04/17 01:47:32;;;;;;;0.10;0.10;;;;;;;;;;5036743;28;20373;-93
2022/04/17 01:49:58;;;;;;;0.10;0.10;;;;;;;;;;5036750;28;20044;-92
2022/04/17 01:52:24;;;;;;;0.10;0.10;;;;;;;;;;5036471;28;20040;-91
2022/04/17 01:54:51;;;;;;;0.10;0.10;;;;;;;;;;5036139;28;20068;-93
2022/04/17 01:57:17;;;;;;;0.10;0.10;;;;;;;;;;5036546;28;20075;-93
2022/04/17 01:59:43;;;;;;;0.10;0.10;;;;;;;;;;5036891;28;20431;-91
2022/04/17 02:02:09;;;;;;;0.10;0.10;;;;;;;;;;5052975;28;20040;-92
2022/04/17 02:04:36;;;;;;;0.10;0.10;;;;;;;;;;5036497;28;20093;-93
2022/04/17 02:07:05;;;;;;;0.10;0.10;;;;;;;;;;5036661;28;20044;-93
2022/04/17 02:09:31;;;;;;;0.10;0.10;;;;;;;;;;5036365;28;20052;-92
2022/04/17 02:11:57;;;;;;;0.10;0.10;;;;;;;;;;5036469;28;20037;-93
2022/04/17 02:14:23;;;;;;;0.10;0.10;;;;;;;;;;5036229;28;20083;-91
2022/04/17 02:16:50;;;;;;;0.10;0.10;;;;;;;;;;5036575;28;20048;-92
2022/04/17 02:19:17;;;;;;;0.10;0.10;;;;;;;;;;5035995;28;20124;-92
2022/04/17 02:21:43;;;;;;;0.10;0.10;;;;;;;;;;5035224;28;20041;-91
2022/04/17 02:24:09;;;;;;;0.10;0.10;;;;;;;;;;5052681;28;20036;-93
2022/04/17 02:26:35;;;;;;;0.10;0.10;;;;;;;;;;5036158;28;20068;-93
2022/04/17 02:29:02;;;;;;;0.10;0.10;;;;;;;;;;5036427;28;20044;-92
2022/04/17 02:31:29;;;;;;;0.10;0.10;;;;;;;;;;5036138;28;20131;-93
2022/04/17 02:33:56;;;;;;;0.10;0.10;;;;;;;;;;5035926;28;20068;-93
2022/04/17 02:36:22;;;;;;;0.10;0.10;;;;;;;;;;5036152;28;20124;-93
2022/04/17 02:38:48;;;;;;;0.10;0.10;;;;;;;;;;5052347;28;20048;-93
2022/04/17 02:41:14;;;;;;;0.10;0.10;;;;;;;;;;5036084;28;20037;-93
2022/04/17 02:43:40;;;;;;;0.10;0.10;;;;;;;;;;5035912;28;20064;-92
2022/04/17 02:46:06;;;;;;;0.10;0.10;;;;;;;;;;5052401;28;20179;-93
2022/04/17 02:48:34;;;;;;;0.10;0.10;;;;;;;;;;5035799;28;20040;-92
2022/04/17 02:51:00;;;;;;;0.10;0.10;;;;;;;;;;5035570;28;20503;-92
2022/04/17 02:53:26;;;;;;;0.10;0.10;;;;;;;;;;5035655;28;20052;-92
2022/04/17 02:55:52;;;;;;;0.10;0.10;;;;;;;;;;5035687;28;20053;-94
2022/04/17 02:58:19;;;;;;;0.10;0.10;;;;;;;;;;5035727;28;20041;-94
2022/04/17 03:06:14;;;;;;;0.10;0.10;;;;;;;;;;5054077;28;20056;-94
2022/04/17 03:08:41;;;;;;;0.15;0.15;;;;;;;;;;5039694;28;20040;-93
2022/04/17 03:11:07;;;;;;;0.10;0.10;;;;;;;;;;5040351;28;20044;-92
2022/04/17 03:13:33;;;;;;;0.10;0.10;;;;;;;;;;5056834;28;20644;-94
2022/04/17 03:15:59;;;;;;;0.10;0.10;;;;;;;;;;5060106;28;20045;-94
2022/04/17 03:18:25;;;;;;;0.10;0.10;;;;;;;;;;5049868;28;20045;-93
2022/04/17 03:20:51;;;;;;;0.10;0.10;;;;;;;;;;5039108;28;20037;-92
2022/04/17 03:23:18;;;;;;;0.10;0.10;;;;;;;;;;5049689;28;20055;-91
2022/04/17 03:25:44;;;;;;;0.10;0.10;;;;;;;;;;5058856;28;20025;-91
2022/04/17 03:28:10;;;;;;;0.10;0.10;;;;;;;;;;5049464;28;20052;-93
2022/04/17 03:30:36;;;;;;;0.10;0.10;;;;;;;;;;5035406;28;20040;-93
2022/04/17 03:33:02;;;;;;;0.10;0.10;;;;;;;;;;5036176;28;20484;-93
2022/04/17 03:35:30;;;;;;;0.10;0.10;;;;;;;;;;5055889;28;20036;-93
2022/04/17 03:37:57;;;;;;;0.10;0.10;;;;;;;;;;5039802;28;20037;-94
2022/04/17 03:40:23;;;;;;;0.10;0.10;;;;;;;;;;5040304;28;20032;-94
2022/04/17 03:42:49;;;;;;;0.10;0.10;;;;;;;;;;5039734;28;20131;-92
2022/04/17 03:45:17;;;;;;;0.10;0.10;;;;;;;;;;5039526;28;20144;-91
2022/04/17 03:47:43;;;;;;;0.10;0.10;;;;;;;;;;5039169;28;20051;-90
2022/04/17 03:50:09;;;;;;;0.10;0.10;;;;;;;;;;5039137;28;20047;-90
2022/04/17 03:52:42;;;;;;;0.10;0.10;;;;;;;;;;5039293;28;20050;-92
2022/04/17 03:55:08;;;;;;;0.10;0.10;;;;;;;;;;5038876;28;20057;-91
2022/04/17 03:57:34;;;;;;;0.17;0.17;;;;;;;;;;5039147;28;20041;-91
2022/04/17 04:00:00;;;;;;;0.10;0.10;;;;;;;;;;5039081;28;20194;-92
2022/04/17 04:02:28;;;;;;;0.10;0.10;;;;;;;;;;5038869;28;20041;-92
2022/04/17 04:04:54;;;;;;;0.10;0.10;;;;;;;;;;5038880;28;20040;-92
2022/04/17 04:07:20;;;;;;;0.10;0.10;;;;;;;;;;5038851;28;20037;-91
2022/04/17 04:09:46;;;;;;;0.10;0.10;;;;;;;;;;5038843;28;20128;-91
2022/04/17 04:12:12;;;;;;;0.10;0.10;;;;;;;;;;5038666;28;20128;-91
2022/04/17 04:14:38;;;;;;;0.10;0.10;;;;;;;;;;5038619;28;20045;-91
2022/04/17 04:17:05;;;;;;;0.10;0.10;;;;;;;;;;5038923;28;20068;-91
2022/04/17 04:19:31;;;;;;;0.13;0.13;;;;;;;;;;5038581;28;20396;-92
2022/04/17 04:21:57;;;;;;;0.10;0.10;;;;;;;;;;5038512;28;20043;-92
2022/04/17 04:24:24;;;;;;;0.10;0.10;;;;;;;;;;5038853;28;20415;-94
2022/04/17 04:29:35;;;;;;;0.10;0.10;;;;;;;;;;5041030;28;20404;-91
2022/04/17 04:32:01;;;;;;;0.10;0.10;;;;;;;;;;5038023;28;20468;-91
2022/04/17 04:34:27;;;;;;;0.47;0.47;;;;;;;;;;5037982;28;20094;-91
2022/04/17 04:36:53;;;;;;;0.10;0.10;;;;;;;;;;5037988;28;20074;-91
2022/04/17 04:39:19;;;;;;;0.10;0.10;;;;;;;;;;5038373;28;20040;-92
2022/04/17 04:41:45;;;;;;;0.10;0.10;;;;;;;;;;5038679;28;20041;-92
2022/04/17 04:44:12;;;;;;;0.10;0.10;;;;;;;;;;5037684;28;20044;-95
2022/04/17 04:46:38;;;;;;;0.20;0.20;;;;;;;;;;5038021;28;20040;-93
2022/04/17 04:51:49;;;;;;;0.40;0.30;;;;;;;;;;5040851;28;20048;-91
2022/04/17 04:54:15;;;;;;;0.10;0.10;;;;;;;;;;5053744;28;20043;-92
2022/04/17 04:56:41;;;;;;;0.17;0.17;;;;;;;;;;5037850;28;20088;-91
2022/04/17 04:59:09;;;;;;;0.40;0.40;;;;;;;;;;5037683;28;20033;-92
2022/04/17 05:01:35;;;;;;;0.10;0.10;;;;;;;;;;5037627;28;20036;-93
2022/04/17 05:04:01;;;;;;;0.10;0.10;;;;;;;;;;5037832;28;20060;-93
2022/04/17 05:06:27;;;;;;;0.10;0.10;;;;;;;;;;5037518;28;20506;-92
2022/04/17 05:08:53;;;;;;;0.20;0.20;;;;;;;;;;5037969;28;20033;-93
2022/04/17 05:11:20;;;;;;;0.10;0.10;;;;;;;;;;5038511;28;20481;-92
2022/04/17 05:13:46;;;;;;;0.10;0.10;;;;;;;;;;5037646;28;20329;-91
2022/04/17 05:16:13;;;;;;;0.10;0.10;;;;;;;;;;5037335;28;20037;-92
2022/04/17 05:18:39;;;;;;;0.10;0.10;;;;;;;;;;5037297;28;20045;-91
2022/04/17 05:21:06;;;;;;;0.10;0.10;;;;;;;;;;5053761;28;20045;-91
2022/04/17 05:23:32;;;;;;;0.10;0.10;;;;;;;;;;5036850;28;20045;-90
2022/04/17 05:25:59;;;;;;;0.10;0.10;;;;;;;;;;5036828;28;20179;-91
2022/04/17 05:28:25;;;;;;;0.10;0.10;;;;;;;;;;5037888;28;20052;-92
2022/04/17 05:30:51;;;;;;;0.10;0.10;;;;;;;;;;5037056;28;20123;-93
2022/04/17 05:33:20;;;;;;;0.10;0.10;;;;;;;;;;5037324;28;20053;-94
2022/04/17 05:35:46;;;;;;;0.10;0.10;;;;;;;;;;5037440;28;20037;-93
2022/04/17 05:38:12;;;;;;;0.10;0.10;;;;;;;;;;5037189;28;20041;-93
2022/04/17 05:40:39;;;;;;;0.10;0.10;;;;;;;;;;5037239;28;20444;-91
2022/04/17 05:43:05;;;;;;;0.10;0.10;;;;;;;;;;5037114;28;20480;-92
2022/04/17 05:45:32;;;;;;;0.10;0.10;;;;;;;;;;5036860;28;20080;-92
2022/04/17 05:47:58;;;;;;;0.10;0.10;;;;;;;;;;5036780;28;20053;-91
2022/04/17 05:50:24;;;;;;;0.20;0.20;;;;;;;;;;5035496;28;20040;-93
2022/04/17 05:52:51;;;;;;;0.10;0.10;;;;;;;;;;5037053;28;20174;-92
2022/04/17 05:55:20;;;;;;;0.10;0.10;;;;;;;;;;5036714;28;20049;-93
2022/04/17 05:57:46;;;;;;;0.43;0.43;;;;;;;;;;5036187;28;20076;-94
2022/04/17 06:00:12;;;;;;;0.10;0.10;;;;;;;;;;5037050;28;20530;-93
2022/04/17 06:02:38;;;;;;;0.10;0.10;;;;;;;;;;5036559;28;20129;-94
2022/04/17 06:05:05;;;;;;;0.10;0.10;;;;;;;;;;5053256;28;20198;-93
2022/04/17 06:07:31;;;;;;;0.90;0.20;;;;;;;;;;5026206;28;20045;-93
2022/04/17 06:10:01;;;;;;;0.10;0.10;;;;;;;;;;5036880;28;20036;-94
2022/04/17 06:12:27;;;;;;;0.50;0.50;;;;;;;;;;5037011;28;20143;-95
2022/04/17 06:14:53;;;;;;;0.13;0.13;;;;;;;;;;5036214;28;20124;-93
2022/04/17 06:17:19;;;;;;;0.10;0.10;;;;;;;;;;5036685;28;20041;-95
2022/04/17 06:19:45;;;;;;;0.30;0.30;;;;;;;;;;5053072;28;20033;-94
2022/04/17 06:22:11;;;;;;;0.10;0.10;;;;;;;;;;5036337;28;20033;-95
2022/04/17 06:24:37;;;;;;;0.10;0.10;;;;;;;;;;5036436;28;20041;-95
2022/04/17 06:27:06;;;;;;;0.20;0.20;;;;;;;;;;5036734;28;20133;-95
2022/04/17 06:29:34;;;;;;;0.10;0.10;;;;;;;;;;5052973;28;20045;-92
2022/04/17 06:32:00;;;;;;;0.52;0.52;;;;;;;;;;5036385;28;20041;-95
2022/04/17 06:34:26;;;;;;;0.10;0.10;;;;;;;;;;5035851;28;20040;-95
2022/04/17 06:36:52;;;;;;;0.20;0.20;;;;;;;;;;5036192;28;20123;-93
2022/04/17 06:39:22;;;;;;;0.10;0.10;;;;;;;;;;5036592;28;20040;-94
2022/04/17 06:41:49;;;;;;;0.20;0.20;;;;;;;;;;5035885;28;20047;-91
2022/04/17 06:44:15;;;;;;;0.25;0.25;;;;;;;;;;5036052;28;20037;-92
2022/04/17 06:46:43;;;;;;;0.20;0.20;;;;;;;;;;5035267;28;20044;-92
2022/04/17 06:49:09;;;;;;;0.10;0.10;;;;;;;;;;5035745;28;20041;-92
2022/04/17 06:51:35;;;;;;;0.10;0.10;;;;;;;;;;5035425;28;20045;-93
2022/04/17 06:54:01;;;;;;;0.10;0.10;;;;;;;;;;5035082;28;20403;-93
2022/04/17 06:56:27;;;;;;;0.22;0.22;;;;;;;;;;5035139;28;20094;-92
2022/04/17 06:58:53;;;;;;;0.10;0.10;;;;;;;;;;5051227;28;20492;-91
2022/04/17 07:01:19;;;;;;;0.30;0.30;;;;;;;;;;5034790;28;20041;-89
2022/04/17 07:03:45;;;;;;;0.20;0.20;;;;;;;;;;5034208;28;20094;-92
2022/04/17 07:06:11;;;;;;;0.47;0.47;;;;;;;;;;5034626;28;20366;-90
2022/04/17 07:08:37;;;;;;;0.20;0.20;;;;;;;;;;5034205;28;20079;-89
2022/04/17 07:11:04;;;;;;;0.10;0.10;;;;;;;;;;5034593;28;20454;-90
2022/04/17 07:13:33;;;;;;;0.10;0.10;;;;;;;;;;5034702;28;20045;-88
2022/04/17 07:15:59;;;;;;;0.10;0.10;;;;;;;;;;5034750;28;20484;-89
2022/04/17 07:18:25;;;;;;;0.20;0.20;;;;;;;;;;5050896;28;20048;-89
2022/04/17 07:20:51;;;;;;;0.20;0.20;;;;;;;;;;5034444;28;20036;-89
2022/04/17 07:23:17;;;;;;;0.40;0.40;;;;;;;;;;5034466;28;20048;-88
2022/04/17 07:25:43;;;;;;;0.10;0.10;;;;;;;;;;5050824;28;20043;-88
2022/04/17 07:28:12;;;;;;;0.20;0.20;;;;;;;;;;5051054;28;20123;-87
2022/04/17 07:30:38;;;;;;;0.55;0.55;;;;;;;;;;5034202;28;20048;-87
2022/04/17 07:33:04;;;;;;;0.28;0.20;;;;;;;;;;5053476;28;20040;-87
2022/04/17 07:35:30;;;;;;;3.50;0.60;;;;;;;;;;5038390;28;20073;-87
2022/04/17 07:38:05;;;;;;;0.10;0.10;;;;;;;;;;5037687;28;20041;-88
2022/04/17 07:40:33;;;;;;;0.20;0.20;;;;;;;;;;5034791;28;20064;-89
2022/04/17 07:43:02;;;;;;;0.10;0.10;;;;;;;;;;5045150;28;20088;-89
2022/04/17 07:45:28;;;;;;;0.20;0.20;;;;;;;;;;5049883;28;20041;-89
2022/04/17 07:47:54;;;;;;;0.30;0.30;;;;;;;;;;5039134;28;20408;-89
2022/04/17 07:50:23;;;;;;;0.20;0.20;;;;;;;;;;5033677;28;20045;-87
2022/04/17 07:52:49;;;;;;;0.30;0.30;;;;;;;;;;5034114;28;20075;-89
2022/04/17 07:55:15;;;;;;;0.20;0.20;;;;;;;;;;5032858;28;20445;-89
2022/04/17 07:58:03;;;;;;;0.20;0.20;;;;;;;;;;5033733;28;20116;-88
2022/04/17 08:00:31;;;;;;;0.30;0.30;;;;;;;;;;5036879;28;20045;-90
2022/04/17 08:03:08;;;;;;;0.20;0.20;;;;;;;;;;5033868;28;20037;-89
2022/04/17 08:05:40;;;;;;;0.10;0.10;;;;;;;;;;5035191;28;20552;-89
2022/04/17 08:08:08;;;;;;;0.20;0.20;;;;;;;;;;5033574;28;20048;-89
2022/04/17 08:10:34;;;;;;;0.20;0.20;;;;;;;;;;5034097;28;20068;-88
2022/04/17 08:13:00;;;;;;;0.10;0.10;;;;;;;;;;5050169;28;20098;-89
2022/04/17 08:15:26;;;;;;;0.50;0.30;;;;;;;;;;5033283;28;20056;-89
2022/04/17 08:17:52;;;;;;;0.20;0.20;;;;;;;;;;5033413;28;20350;-89
2022/04/17 08:20:18;;;;;;;0.10;0.10;;;;;;;;;;5035258;28;20056;-88
2022/04/17 08:22:46;;;;;;;0.20;0.20;;;;;;;;;;5053853;28;20049;-89
2022/04/17 08:25:12;;;;;;;0.10;0.10;;;;;;;;;;5053590;28;20408;-89
2022/04/17 08:27:45;;;;;;;0.10;0.10;;;;;;;;;;5037010;28;20032;-89
2022/04/17 08:30:11;;;;;;;0.20;0.20;;;;;;;;;;5037085;28;20506;-90
2022/04/17 08:32:37;;;;;;;0.30;0.30;;;;;;;;;;5037064;28;20111;-88
2022/04/17 08:35:03;;;;;;;0.20;0.20;;;;;;;;;;5037251;28;20458;-91
2022/04/17 08:37:30;;;;;;;0.22;0.22;;;;;;;;;;5037106;28;20040;-90
2022/04/17 08:39:56;;;;;;;0.10;0.10;;;;;;;;;;5037386;28;20069;-89
2022/04/17 08:42:26;;;;;;;0.28;0.28;;;;;;;;;;5036667;28;20079;-88
2022/04/17 08:44:54;;;;;;;0.20;0.20;;;;;;;;;;5053939;28;20052;-89
2022/04/17 08:47:20;;;;;;;0.10;0.10;;;;;;;;;;5036858;28;20067;-89
2022/04/17 08:49:46;;;;;;;0.20;0.20;;;;;;;;;;5036798;28;20133;-90
2022/04/17 08:52:15;;;;;;;0.10;0.10;;;;;;;;;;5036699;28;20041;-89
2022/04/17 08:54:41;;;;;;;0.15;0.15;;;;;;;;;;5036811;28;20111;-89
2022/04/17 08:57:07;;;;;;;0.20;0.20;;;;;;;;;;5036706;28;20045;-90
2022/04/17 08:59:33;;;;;;;0.20;0.20;;;;;;;;;;5037150;28;20044;-90
2022/04/17 09:02:07;;;;;;;0.50;0.50;;;;;;;;;;5053015;28;20114;-89
2022/04/17 09:04:33;;;;;;;0.20;0.20;;;;;;;;;;5052899;28;20048;-89
2022/04/17 09:06:59;;;;;;;0.10;0.10;;;;;;;;;;5036733;28;20029;-89
2022/04/17 09:09:25;;;;;;;0.20;0.20;;;;;;;;;;5052886;28;20108;-89
2022/04/17 09:11:54;;;;;;;0.10;0.10;;;;;;;;;;5036441;28;20040;-92
2022/04/17 09:14:20;;;;;;;0.20;0.20;;;;;;;;;;5036545;28;20104;-89
2022/04/17 09:16:49;;;;;;;0.20;0.20;;;;;;;;;;5036300;28;20186;-89
2022/04/17 09:19:18;;;;;;;0.10;0.10;;;;;;;;;;5052830;28;20033;-88
2022/04/17 09:21:45;;;;;;;0.10;0.10;;;;;;;;;;5036232;28;20488;-89
2022/04/17 09:24:15;;;;;;;0.28;0.28;;;;;;;;;;5036415;28;20052;-89
2022/04/17 09:26:50;;;;;;;0.28;0.28;;;;;;;;;;5036235;28;20091;-87
2022/04/17 09:29:36;;;;;;;0.65;0.40;;;;;;;;;;5036042;28;20503;-88
2022/04/17 09:32:08;;;;;;;0.20;0.20;;;;;;;;;;5035870;28;20068;-90
2022/04/17 09:34:55;;;;;;;0.10;0.10;;;;;;;;;;5036153;28;20041;-90
2022/04/17 09:37:21;;;;;;;0.45;0.45;;;;;;;;;;5052786;28;20090;-90
2022/04/17 09:39:48;;;;;;;0.20;0.20;;;;;;;;;;5036607;28;20102;-90
2022/04/17 09:42:14;;;;;;;0.20;0.20;;;;;;;;;;5036408;28;20068;-90
2022/04/17 09:44:46;;;;;;;0.20;0.20;;;;;;;;;;5036262;28;20098;-90
2022/04/17 09:47:12;;;;;;;;;;;;;;;;;;5053133;28;20052;-90
2022/04/17 09:49:56;;;;;;;0.20;0.20;;;;;;;;;;5052704;28;19917;-89
2022/04/17 09:52:28;;;;;;;0.20;0.20;;;;;;;;;;5052135;28;20041;-90
2022/04/17 09:54:55;;;;;;;0.10;0.10;;;;;;;;;;5035758;28;20416;-91
2022/04/17 09:57:34;;;;;;;0.10;0.10;;;;;;;;;;5052276;28;20041;-88
2022/04/17 10:00:06;;;;;;;0.10;0.10;;;;;;;;;;5032189;28;20036;-88
2022/04/17 10:02:32;;;;;;;0.20;0.20;;;;;;;;;;5034918;28;20041;-88
2022/04/17 10:04:59;;;;;;;0.20;0.20;;;;;;;;;;5035060;28;20509;-88
2022/04/17 10:07:28;;;;;;;0.10;0.10;;;;;;;;;;5035377;28;20091;-91
2022/04/17 10:09:54;;;;;;;0.10;0.10;;;;;;;;;;5034221;28;20087;-90
2022/04/17 10:12:21;;;;;;;0.10;0.10;;;;;;;;;;5032576;28;20063;-90
2022/04/17 10:14:48;;;;;;;0.25;0.25;;;;;;;;;;5051247;28;20484;-90
2022/04/17 10:17:14;;;;;;;0.10;0.10;;;;;;;;;;5030462;28;20033;-87
2022/04/17 10:19:41;;;;;;;0.15;0.15;;;;;;;;;;5050136;28;20377;-88
2022/04/17 10:22:07;;;;;;;0.20;0.20;;;;;;;;;;5035228;28;20041;-88
2022/04/17 10:24:33;;;;;;;0.70;0.70;;;;;;;;;;5018655;28;20113;-88
2022/04/17 10:26:59;;;;;;;0.15;0.15;;;;;;;;;;5017418;28;20044;-85
2022/04/17 10:29:39;;;;;;;0.10;0.10;;;;;;;;;;5051516;28;20048;-86
2022/04/17 10:32:05;;;;;;;0.20;0.20;;;;;;;;;;5034779;28;20044;-86
2022/04/17 10:34:54;;;;;;;0.20;0.20;;;;;;;;;;5049924;28;20083;-87
2022/04/17 10:37:38;;;;;;;0.20;0.20;;;;;;;;;;5024678;28;20049;-86
2022/04/17 10:40:04;;;;;;;0.20;0.20;;;;;;;;;;5034766;28;20467;-87
2022/04/17 10:42:36;;;;;;;0.20;0.20;;;;;;;;;;5032831;28;20554;-87
2022/04/17 10:45:07;;;;;;;0.10;0.10;;;;;;;;;;5034359;28;20048;-86
2022/04/17 10:47:33;;;;;;;0.20;0.20;;;;;;;;;;5034293;28;20076;-87
2022/04/17 10:50:02;;;;;;;0.20;0.20;;;;;;;;;;5051533;28;20080;-87
2022/04/17 10:52:29;;;;;;;0.20;0.20;;;;;;;;;;5033471;28;20495;-87
2022/04/17 10:54:55;;;;;;;0.10;0.10;;;;;;;;;;5033282;28;20107;-86
2022/04/17 10:57:24;;;;;;;0.20;0.20;;;;;;;;;;5051105;28;20472;-87
2022/04/17 10:59:50;;;;;;;0.57;0.57;;;;;;;;;;5034748;28;20037;-87
2022/04/17 11:02:19;;;;;;;0.10;0.10;;;;;;;;;;5032147;28;20037;-87
2022/04/17 11:04:54;;;;;;;0.20;0.20;;;;;;;;;;5050380;28;20488;-88
2022/04/17 11:07:27;;;;;;;0.20;0.20;;;;;;;;;;5050369;28;20045;-88
2022/04/17 11:09:52;;;;;;;;;;;;;;;;;;5033043;28;20500;-88
2022/04/17 11:12:18;;;;;;;0.10;0.10;;;;;;;;;;5034230;28;19939;-89
2022/04/17 11:15:05;;;;;;;0.20;0.20;;;;;;;;;;5050598;28;20124;-88
2022/04/17 11:17:31;;;;;;;0.10;0.10;;;;;;;;;;5051090;28;20115;-88
2022/04/17 11:19:57;;;;;;;0.10;0.10;;;;;;;;;;5050606;28;20079;-88
2022/04/17 11:22:27;;;;;;;0.10;0.10;;;;;;;;;;5034476;28;20352;-86
2022/04/17 11:25:06;;;;;;;0.13;0.13;;;;;;;;;;5034615;28;20049;-88
2022/04/17 11:27:32;;;;;;;0.20;0.20;;;;;;;;;;5050931;28;20408;-88
2022/04/17 11:30:00;;;;;;;0.52;0.52;;;;;;;;;;5034419;28;20041;-88
2022/04/17 11:32:29;;;;;;;0.30;0.30;;;;;;;;;;5034901;28;20048;-88
2022/04/17 11:35:01;;;;;;;0.10;0.10;;;;;;;;;;5052191;28;20110;-89
2022/04/17 11:37:27;;;;;;;0.10;0.10;;;;;;;;;;5052345;28;20049;-90
2022/04/17 11:39:54;;;;;;;0.95;0.30;;;;;;;;;;5063917;28;20063;-90
2022/04/17 11:42:20;;;;;;;0.10;0.10;;;;;;;;;;5034444;28;20568;-95
2022/04/17 11:44:46;;;;;;;0.10;0.10;;;;;;;;;;5036013;28;20072;-89
2022/04/17 11:47:19;;;;;;;0.10;0.10;;;;;;;;;;5067935;28;20041;-90
2022/04/17 11:49:46;;;;;;;1.08;1.05;;;;;;;;;;5048082;28;20037;-91
2022/04/17 11:52:13;;;;;;;0.10;0.10;;;;;;;;;;5034405;28;20377;-91
2022/04/17 11:54:39;;;;;;;0.10;0.10;;;;;;;;;;5035414;28;20071;-91
2022/04/17 11:57:05;;;;;;;0.20;0.20;;;;;;;;;;5038155;28;20057;-91
2022/04/17 12:00:05;;;;;;;0.20;0.20;;;;;;;;;;5038422;28;20045;-91
2022/04/17 12:02:31;;;;;;;0.20;0.20;;;;;;;;;;5022860;28;20485;-92
2022/04/17 12:04:58;;;;;;;0.10;0.10;;;;;;;;;;5038328;28;20045;-92
2022/04/17 12:07:26;;;;;;;0.15;0.15;;;;;;;;;;5038527;28;20124;-92
2022/04/17 12:10:04;;;;;;;0.10;0.10;;;;;;;;;;5038588;28;20045;-92
2022/04/17 12:12:36;;;;;;;0.40;0.40;;;;;;;;;;5054967;28;20041;-92
2022/04/17 12:15:03;;;;;;;0.10;0.10;;;;;;;;;;5037900;28;20037;-91
2022/04/17 12:17:30;;;;;;;0.10;0.10;;;;;;;;;;5038129;28;20098;-91
2022/04/17 12:19:56;;;;;;;7.53;1.52;;;;;;;;;;5038246;28;20096;-92
2022/04/17 12:22:22;;;;;;;0.10;0.10;;;;;;;;;;5037885;28;20044;-93
2022/04/17 12:24:48;;;;;;;0.20;0.20;;;;;;;;;;5038230;28;20041;-92
2022/04/17 12:27:19;;;;;;;0.15;0.15;;;;;;;;;;5038426;28;20456;-92
2022/04/17 12:29:45;;;;;;;0.10;0.10;;;;;;;;;;5039000;28;20106;-92
2022/04/17 12:32:23;;;;;;;0.10;0.10;;;;;;;;;;5034750;28;20481;-92
2022/04/17 12:35:03;;;;;;;0.20;0.20;;;;;;;;;;5034701;28;20041;-92
2022/04/17 12:37:30;;;;;;;0.45;0.20;;;;;;;;;;5018280;28;20045;-92
2022/04/17 12:40:18;;;;;;;0.10;0.10;;;;;;;;;;5068246;28;20094;-92
2022/04/17 12:42:44;;;;;;;0.40;0.40;;;;;;;;;;5034915;28;20111;-92
2022/04/17 12:45:10;;;;;;;0.20;0.20;;;;;;;;;;5034488;28;20369;-92
2022/04/17 12:47:38;;;;;;;0.30;0.20;;;;;;;;;;5025497;28;20076;-93
2022/04/17 12:50:08;;;;;;;0.10;0.10;;;;;;;;;;5037993;28;20055;-91
2022/04/17 12:52:34;;;;;;;0.22;0.22;;;;;;;;;;5037071;28;20040;-92
2022/04/17 12:55:12;;;;;;;0.15;0.15;;;;;;;;;;5018639;28;20072;-91
2022/04/17 12:57:38;;;;;;;0.10;0.10;;;;;;;;;;5037189;28;20041;-92
2022/04/17 13:00:17;;;;;;;0.10;0.10;;;;;;;;;;5037236;28;20116;-95
2022/04/17 13:02:43;;;;;;;0.10;0.10;;;;;;;;;;5038258;28;20033;-93
2022/04/17 13:05:09;;;;;;;0.10;0.10;;;;;;;;;;5035635;28;20037;-90
2022/04/17 13:07:36;;;;;;;0.10;0.10;;;;;;;;;;5031541;28;20443;-92
2022/04/17 13:10:09;;;;;;;0.22;0.22;;;;;;;;;;5018933;28;20416;-93
2022/04/17 13:12:35;;;;;;;0.13;0.13;;;;;;;;;;5037339;28;20132;-91
2022/04/17 13:15:02;;;;;;;0.43;0.43;;;;;;;;;;5036360;28;20113;-92
2022/04/17 13:17:30;;;;;;;0.10;0.10;;;;;;;;;;5020828;28;20384;-93
2022/04/17 13:19:56;;;;;;;0.20;0.20;;;;;;;;;;5037624;28;20044;-95
2022/04/17 13:22:22;;;;;;;0.20;0.20;;;;;;;;;;5037586;28;20127;-88
2022/04/17 13:24:48;;;;;;;0.10;0.10;;;;;;;;;;5036433;28;20473;-90
2022/04/17 13:27:14;;;;;;;0.10;0.10;;;;;;;;;;5036569;28;20045;-90
2022/04/17 13:29:40;;;;;;;0.10;0.10;;;;;;;;;;5036548;28;20052;-90
2022/04/17 13:32:09;;;;;;;0.20;0.20;;;;;;;;;;5036263;28;20124;-90
2022/04/17 13:34:36;;;;;;;0.10;0.10;;;;;;;;;;5036272;28;20045;-89
2022/04/17 13:39:48;;;;;;;0.10;0.10;;;;;;;;;;5053209;28;20350;-90
2022/04/17 13:42:14;;;;;;;0.22;0.22;;;;;;;;;;5036189;28;20079;-89
2022/04/17 13:44:40;;;;;;;0.10;0.10;;;;;;;;;;5035927;28;20041;-90
2022/04/17 13:47:06;;;;;;;0.10;0.10;;;;;;;;;;5052630;28;20082;-91
2022/04/17 13:49:33;;;;;;;0.22;0.22;;;;;;;;;;5036228;28;20041;-92
2022/04/17 13:51:59;;;;;;;0.10;0.10;;;;;;;;;;5033692;28;20033;-90
2022/04/17 13:54:25;;;;;;;0.10;0.10;;;;;;;;;;5034500;28;20053;-91
2022/04/17 13:56:51;;;;;;;0.10;0.10;;;;;;;;;;5031724;28;20048;-90
2022/04/17 13:59:17;;;;;;;0.10;0.10;;;;;;;;;;5017936;28;20437;-90
2022/04/17 14:01:43;;;;;;;0.10;0.10;;;;;;;;;;5034630;28;20095;-89
2022/04/17 14:04:09;;;;;;;0.30;0.30;;;;;;;;;;5035704;28;20151;-89
2022/04/17 14:06:36;;;;;;;0.40;0.40;;;;;;;;;;5035145;28;20052;-90
2022/04/17 14:09:02;;;;;;;0.10;0.10;;;;;;;;;;5035073;28;20056;-89
2022/04/17 14:11:28;;;;;;;0.10;0.10;;;;;;;;;;5035465;28;20051;-90
2022/04/17 14:13:56;;;;;;;0.10;0.10;;;;;;;;;;5035817;28;20516;-90
2022/04/17 14:16:22;;;;;;;0.20;0.20;;;;;;;;;;5050969;28;20040;-89
2022/04/17 14:18:48;;;;;;;0.20;0.20;;;;;;;;;;5033588;28;20040;-89
2022/04/17 14:21:14;;;;;;;0.10;0.10;;;;;;;;;;5051439;28;20120;-90
2022/04/17 14:23:40;;;;;;;0.10;0.10;;;;;;;;;;5035393;28;20318;-88
2022/04/17 14:26:06;;;;;;;0.20;0.20;;;;;;;;;;5051702;28;20178;-89
2022/04/17 14:28:32;;;;;;;0.10;0.10;;;;;;;;;;5018996;28;20040;-89
2022/04/17 14:30:58;;;;;;;0.25;0.25;;;;;;;;;;5018760;28;20052;-89
2022/04/17 14:33:25;;;;;;;0.20;0.20;;;;;;;;;;5018437;28;20553;-88
2022/04/17 14:35:56;;;;;;;0.10;0.10;;;;;;;;;;5051272;28;20044;-90
2022/04/17 14:38:23;;;;;;;2.67;0.25;;;;;;;;;;5019291;28;20571;-89
2022/04/17 14:40:49;;;;;;;0.20;0.20;;;;;;;;;;5018370;28;20454;-89
2022/04/17 14:43:15;;;;;;;0.20;0.20;;;;;;;;;;5049985;28;20032;-89
2022/04/17 14:45:41;;;;;;;0.15;0.15;;;;;;;;;;5017058;28;20048;-90
2022/04/17 14:48:07;;;;;;;0.20;0.20;;;;;;;;;;5018215;28;20404;-89
2022/04/17 14:50:33;;;;;;;0.10;0.10;;;;;;;;;;5032740;28;20037;-88
2022/04/17 14:52:59;;;;;;;0.10;0.10;;;;;;;;;;5033977;28;20428;-88
2022/04/17 14:55:25;;;;;;;0.10;0.10;;;;;;;;;;5034003;28;20141;-88
2022/04/17 14:57:51;;;;;;;0.25;0.25;;;;;;;;;;5031306;28;20480;-89
2022/04/17 15:00:17;;;;;;;0.10;0.10;;;;;;;;;;5018363;28;20059;-91
2022/04/17 15:02:43;;;;;;;0.60;0.60;;;;;;;;;;5014575;28;20536;-89